createdAt,value
2018-09-08T00:00:05.481Z,16.1111111111
2018-09-08T00:00:17.889Z,16.1111111111
2018-09-08T00:00:30.299Z,16.0555555556
2018-09-08T00:00:42.712Z,16.0555555556
2018-09-08T00:00:55.122Z,16.1111111111
2018-09-08T00:01:07.527Z,16.0555555556
2018-09-08T00:01:19.924Z,16.0555555556
2018-09-08T00:01:32.321Z,16.1111111111
2018-09-08T00:01:44.734Z,16.0555555556
2018-09-08T00:01:57.169Z,16.0555555556
2018-09-08T00:02:09.699Z,16.0555555556
2018-09-08T00:02:22.098Z,16.0555555556
2018-09-08T00:02:34.478Z,16.0555555556
2018-09-08T00:02:46.854Z,16.0555555556
2018-09-08T00:02:59.306Z,16.0555555556
2018-09-08T00:03:11.833Z,16.0555555556
2018-09-08T00:03:24.265Z,16.0555555556
2018-09-08T00:03:36.656Z,16.0555555556
2018-09-08T00:03:49.060Z,16.0555555556
2018-09-08T00:04:01.475Z,16.0555555556
2018-09-08T00:04:13.880Z,16.0555555556
2018-09-08T00:04:26.288Z,16.0555555556
2018-09-08T00:04:38.672Z,16.0555555556
2018-09-08T00:04:51.068Z,16.0555555556
2018-09-08T00:05:03.447Z,16.0555555556
2018-09-08T00:05:15.829Z,16.0555555556
2018-09-08T00:05:28.227Z,16
2018-09-08T00:05:40.598Z,16.0555555556
2018-09-08T00:05:52.999Z,16.0555555556
2018-09-08T00:06:05.361Z,16.0555555556
2018-09-08T00:06:17.734Z,16.0555555556
2018-09-08T00:06:30.373Z,16.0555555556
2018-09-08T00:06:42.839Z,16.0555555556
2018-09-08T00:06:55.219Z,16
2018-09-08T00:07:07.608Z,16
2018-09-08T00:07:20.267Z,16.0555555556
2018-09-08T00:07:32.731Z,16.0555555556
2018-09-08T00:07:45.120Z,16
2018-09-08T00:07:57.493Z,16.0555555556
2018-09-08T00:08:10.063Z,16
2018-09-08T00:08:22.450Z,16
2018-09-08T00:08:34.848Z,16
2018-09-08T00:08:47.269Z,16.0555555556
2018-09-08T00:08:59.657Z,16
2018-09-08T00:09:12.057Z,16
2018-09-08T00:09:24.458Z,16.0555555556
2018-09-08T00:09:36.824Z,16
2018-09-08T00:09:49.189Z,16
2018-09-08T00:10:01.571Z,16.0555555556
2018-09-08T00:10:13.960Z,16
2018-09-08T00:10:26.349Z,16
2018-09-08T00:10:38.771Z,16
2018-09-08T00:10:51.184Z,16
2018-09-08T00:11:03.581Z,16
2018-09-08T00:11:16.007Z,16
2018-09-08T00:11:28.392Z,16
2018-09-08T00:11:40.977Z,16
2018-09-08T00:11:53.347Z,16
2018-09-08T00:12:05.757Z,16
2018-09-08T00:12:18.139Z,16
2018-09-08T00:12:30.519Z,16
2018-09-08T00:12:42.979Z,16
2018-09-08T00:12:55.369Z,16
2018-09-08T00:13:07.788Z,16
2018-09-08T00:13:20.184Z,16
2018-09-08T00:13:32.573Z,16
2018-09-08T00:13:44.957Z,16
2018-09-08T00:13:57.327Z,16
2018-09-08T00:14:09.710Z,15.9444444444
2018-09-08T00:14:22.092Z,15.9444444444
2018-09-08T00:14:34.486Z,15.9444444444
2018-09-08T00:14:46.862Z,15.9444444444
2018-09-08T00:14:59.246Z,15.9444444444
2018-09-08T00:15:11.659Z,15.9444444444
2018-09-08T00:15:24.093Z,15.9444444444
2018-09-08T00:15:36.490Z,15.9444444444
2018-09-08T00:15:48.873Z,15.9444444444
2018-09-08T00:16:01.279Z,15.9444444444
2018-09-08T00:16:13.875Z,15.9444444444
2018-09-08T00:16:26.264Z,15.9444444444
2018-09-08T00:16:38.652Z,15.9444444444
2018-09-08T00:16:51.034Z,15.8888888889
2018-09-08T00:17:03.470Z,15.8888888889
2018-09-08T00:17:15.858Z,15.8888888889
2018-09-08T00:17:28.233Z,15.8888888889
2018-09-08T00:17:40.784Z,15.8888888889
2018-09-08T00:17:53.199Z,15.8888888889
2018-09-08T00:18:05.578Z,15.8888888889
2018-09-08T00:18:17.976Z,15.8888888889
2018-09-08T00:18:30.382Z,15.8888888889
2018-09-08T00:18:42.798Z,15.8888888889
2018-09-08T00:18:55.202Z,15.8888888889
2018-09-08T00:19:07.590Z,15.8888888889
2018-09-08T00:19:20.004Z,15.8333333333
2018-09-08T00:19:32.413Z,15.8333333333
2018-09-08T00:19:44.974Z,15.8333333333
2018-09-08T00:19:57.369Z,15.8333333333
2018-09-08T00:20:09.755Z,15.8333333333
2018-09-08T00:20:22.178Z,15.8333333333
2018-09-08T00:20:35.189Z,15.8333333333
2018-09-08T00:20:47.578Z,15.8333333333
2018-09-08T00:20:59.997Z,15.8333333333
2018-09-08T00:21:12.452Z,15.8333333333
2018-09-08T00:21:24.929Z,15.8333333333
2018-09-08T00:21:37.346Z,15.8333333333
2018-09-08T00:21:49.754Z,15.7777777778
2018-09-08T00:22:02.305Z,15.8333333333
2018-09-08T00:22:14.738Z,15.8333333333
2018-09-08T00:22:27.153Z,15.7777777778
2018-09-08T00:22:39.543Z,15.7777777778
2018-09-08T00:22:51.983Z,15.7777777778
2018-09-08T00:23:04.618Z,15.7777777778
2018-09-08T00:23:17.003Z,15.7777777778
2018-09-08T00:23:29.373Z,15.7777777778
2018-09-08T00:23:41.855Z,15.7777777778
2018-09-08T00:23:54.343Z,15.7777777778
2018-09-08T00:24:06.749Z,15.7777777778
2018-09-08T00:24:19.138Z,15.7777777778
2018-09-08T00:24:31.529Z,15.7777777778
2018-09-08T00:24:44.070Z,15.7777777778
2018-09-08T00:24:56.499Z,15.7777777778
2018-09-08T00:25:08.949Z,15.7777777778
2018-09-08T00:25:21.394Z,15.7777777778
2018-09-08T00:25:33.783Z,15.7777777778
2018-09-08T00:25:46.161Z,15.7777777778
2018-09-08T00:25:59.003Z,15.7777777778
2018-09-08T00:26:11.387Z,15.7777777778
2018-09-08T00:26:23.764Z,15.7777777778
2018-09-08T00:26:36.142Z,15.7777777778
2018-09-08T00:26:48.692Z,15.7222222222
2018-09-08T00:27:01.070Z,15.7777777778
2018-09-08T00:27:13.473Z,15.7777777778
2018-09-08T00:27:25.858Z,15.7777777778
2018-09-08T00:27:38.242Z,15.7222222222
2018-09-08T00:27:50.614Z,15.7222222222
2018-09-08T00:28:02.988Z,15.7777777778
2018-09-08T00:28:15.362Z,15.7222222222
2018-09-08T00:28:27.726Z,15.7222222222
2018-09-08T00:28:40.110Z,15.7222222222
2018-09-08T00:28:52.511Z,15.7777777778
2018-09-08T00:29:04.899Z,15.7777777778
2018-09-08T00:29:17.332Z,15.7222222222
2018-09-08T00:29:29.764Z,15.7777777778
2018-09-08T00:29:42.152Z,15.7222222222
2018-09-08T00:29:54.535Z,15.7222222222
2018-09-08T00:30:06.916Z,15.7222222222
2018-09-08T00:30:19.304Z,15.7222222222
2018-09-08T00:30:31.683Z,15.7222222222
2018-09-08T00:30:44.122Z,15.7222222222
2018-09-08T00:30:56.497Z,15.7222222222
2018-09-08T00:31:08.882Z,15.7222222222
2018-09-08T00:31:21.278Z,15.7222222222
2018-09-08T00:31:33.659Z,15.7222222222
2018-09-08T00:31:46.070Z,15.7222222222
2018-09-08T00:31:58.450Z,15.7222222222
2018-09-08T00:32:10.825Z,15.7222222222
2018-09-08T00:32:23.209Z,15.7222222222
2018-09-08T00:32:35.598Z,15.7222222222
2018-09-08T00:32:47.980Z,15.7222222222
2018-09-08T00:33:00.381Z,15.7222222222
2018-09-08T00:33:12.918Z,15.7222222222
2018-09-08T00:33:25.332Z,15.6666666667
2018-09-08T00:33:37.733Z,15.6666666667
2018-09-08T00:33:50.106Z,15.6666666667
2018-09-08T00:34:02.480Z,15.6666666667
2018-09-08T00:34:14.860Z,15.6666666667
2018-09-08T00:34:27.302Z,15.6666666667
2018-09-08T00:34:39.703Z,15.6666666667
2018-09-08T00:34:52.162Z,15.6666666667
2018-09-08T00:35:04.542Z,15.6666666667
2018-09-08T00:35:16.932Z,15.6666666667
2018-09-08T00:35:29.314Z,15.6111111111
2018-09-08T00:35:41.729Z,15.6666666667
2018-09-08T00:35:54.102Z,15.6111111111
2018-09-08T00:36:06.504Z,15.6666666667
2018-09-08T00:36:18.901Z,15.6666666667
2018-09-08T00:36:31.292Z,15.6666666667
2018-09-08T00:36:43.686Z,15.6666666667
2018-09-08T00:36:56.071Z,15.6111111111
2018-09-08T00:37:08.493Z,15.6111111111
2018-09-08T00:37:20.880Z,15.6111111111
2018-09-08T00:37:33.247Z,15.6111111111
2018-09-08T00:37:45.626Z,15.5555555556
2018-09-08T00:37:58.015Z,15.5555555556
2018-09-08T00:38:10.428Z,15.6111111111
2018-09-08T00:38:23.116Z,15.5555555556
2018-09-08T00:38:36.533Z,15.5555555556
2018-09-08T00:38:48.921Z,15.5555555556
2018-09-08T00:39:01.364Z,15.5555555556
2018-09-08T00:39:13.762Z,15.5555555556
2018-09-08T00:39:26.375Z,15.5555555556
2018-09-08T00:39:38.754Z,15.5555555556
2018-09-08T00:39:51.287Z,15.5555555556
2018-09-08T00:40:03.961Z,15.5555555556
2018-09-08T00:40:16.372Z,15.5555555556
2018-09-08T00:40:28.756Z,15.5555555556
2018-09-08T00:40:41.251Z,15.5555555556
2018-09-08T00:40:53.645Z,15.5
2018-09-08T00:41:06.044Z,15.5555555556
2018-09-08T00:41:18.432Z,15.5555555556
2018-09-08T00:41:30.891Z,15.5555555556
2018-09-08T00:41:43.287Z,15.5555555556
2018-09-08T00:41:55.875Z,15.5555555556
2018-09-08T00:42:08.284Z,15.5555555556
2018-09-08T00:42:20.679Z,15.5555555556
2018-09-08T00:42:33.061Z,15.5
2018-09-08T00:42:45.496Z,15.5555555556
2018-09-08T00:42:57.877Z,15.5
2018-09-08T00:43:10.355Z,15.5555555556
2018-09-08T00:43:22.818Z,15.5
2018-09-08T00:43:35.236Z,15.5
2018-09-08T00:43:47.616Z,15.5
2018-09-08T00:43:59.999Z,15.5
2018-09-08T00:44:12.392Z,15.5
2018-09-08T00:44:24.784Z,15.5
2018-09-08T00:44:37.169Z,15.5
2018-09-08T00:44:49.599Z,15.5
2018-09-08T00:45:01.983Z,15.5
2018-09-08T00:45:14.366Z,15.5
2018-09-08T00:45:26.752Z,15.5
2018-09-08T00:45:39.166Z,15.4444444444
2018-09-08T00:45:52.271Z,15.4444444444
2018-09-08T00:46:05.385Z,15.5
2018-09-08T00:46:17.757Z,15.4444444444
2018-09-08T00:46:30.133Z,15.5
2018-09-08T00:46:42.513Z,15.4444444444
2018-09-08T00:46:54.886Z,15.5
2018-09-08T00:47:07.268Z,15.5
2018-09-08T00:47:19.667Z,15.5
2018-09-08T00:47:32.054Z,15.4444444444
2018-09-08T00:47:44.446Z,15.4444444444
2018-09-08T00:47:56.837Z,15.5
2018-09-08T00:48:09.254Z,15.4444444444
2018-09-08T00:48:21.660Z,15.4444444444
2018-09-08T00:48:34.045Z,15.4444444444
2018-09-08T00:48:46.462Z,15.4444444444
2018-09-08T00:48:58.888Z,15.4444444444
2018-09-08T00:49:11.285Z,15.4444444444
2018-09-08T00:49:23.816Z,15.4444444444
2018-09-08T00:49:36.240Z,15.4444444444
2018-09-08T00:49:48.640Z,15.4444444444
2018-09-08T00:50:01.012Z,15.4444444444
2018-09-08T00:50:13.398Z,15.4444444444
2018-09-08T00:50:25.789Z,15.4444444444
2018-09-08T00:50:38.201Z,15.3888888889
2018-09-08T00:50:50.597Z,15.4444444444
2018-09-08T00:51:02.988Z,15.4444444444
2018-09-08T00:51:15.372Z,15.4444444444
2018-09-08T00:51:27.779Z,15.4444444444
2018-09-08T00:51:40.235Z,15.3888888889
2018-09-08T00:51:52.643Z,15.4444444444
2018-09-08T00:52:05.050Z,15.4444444444
2018-09-08T00:52:17.424Z,15.4444444444
2018-09-08T00:52:29.821Z,15.3888888889
2018-09-08T00:52:42.215Z,15.3888888889
2018-09-08T00:52:54.956Z,15.3888888889
2018-09-08T00:53:07.348Z,15.3888888889
2018-09-08T00:53:19.721Z,15.3888888889
2018-09-08T00:53:32.115Z,15.3888888889
2018-09-08T00:53:44.517Z,15.3888888889
2018-09-08T00:53:56.930Z,15.3888888889
2018-09-08T00:54:09.308Z,15.3888888889
2018-09-08T00:54:21.701Z,15.3888888889
2018-09-08T00:54:34.103Z,15.3888888889
2018-09-08T00:54:46.508Z,15.3333333333
2018-09-08T00:54:58.892Z,15.3888888889
2018-09-08T00:55:11.306Z,15.3888888889
2018-09-08T00:55:23.680Z,15.3888888889
2018-09-08T00:55:36.078Z,15.3888888889
2018-09-08T00:55:48.438Z,15.3888888889
2018-09-08T00:56:00.821Z,15.3333333333
2018-09-08T00:56:13.249Z,15.3333333333
2018-09-08T00:56:25.637Z,15.3333333333
2018-09-08T00:56:38.004Z,15.3888888889
2018-09-08T00:56:50.509Z,15.3888888889
2018-09-08T00:57:02.957Z,15.3333333333
2018-09-08T00:57:15.347Z,15.3888888889
2018-09-08T00:57:27.758Z,15.3333333333
2018-09-08T00:57:40.197Z,15.3333333333
2018-09-08T00:57:52.606Z,15.3333333333
2018-09-08T00:58:05.035Z,15.3888888889
2018-09-08T00:58:17.433Z,15.3333333333
2018-09-08T00:58:29.818Z,15.3333333333
2018-09-08T00:58:42.203Z,15.3333333333
2018-09-08T00:58:54.810Z,15.3333333333
2018-09-08T00:59:07.209Z,15.3333333333
2018-09-08T00:59:19.591Z,15.3333333333
2018-09-08T00:59:31.989Z,15.3333333333
2018-09-08T00:59:44.468Z,15.3333333333
2018-09-08T00:59:56.851Z,15.3333333333
2018-09-08T01:00:09.269Z,15.3333333333
2018-09-08T01:00:21.664Z,15.3888888889
2018-09-08T01:00:34.105Z,15.3333333333
2018-09-08T01:00:46.636Z,15.3333333333
2018-09-08T01:00:59.067Z,15.3333333333
2018-09-08T01:01:11.489Z,15.3333333333
2018-09-08T01:01:23.961Z,15.3333333333
2018-09-08T01:01:36.370Z,15.3333333333
2018-09-08T01:01:48.769Z,15.2777777778
2018-09-08T01:02:01.300Z,15.2777777778
2018-09-08T01:02:13.700Z,15.3333333333
2018-09-08T01:02:26.112Z,15.3333333333
2018-09-08T01:02:38.512Z,15.3333333333
2018-09-08T01:02:50.920Z,15.3333333333
2018-09-08T01:03:03.317Z,15.3333333333
2018-09-08T01:03:15.856Z,15.3333333333
2018-09-08T01:03:28.274Z,15.2777777778
2018-09-08T01:03:40.949Z,15.2777777778
2018-09-08T01:03:54.707Z,15.2777777778
2018-09-08T01:04:07.168Z,15.2777777778
2018-09-08T01:04:19.566Z,15.2777777778
2018-09-08T01:04:31.956Z,15.3333333333
2018-09-08T01:04:44.353Z,15.2777777778
2018-09-08T01:04:56.752Z,15.2777777778
2018-09-08T01:05:09.193Z,15.3333333333
2018-09-08T01:05:21.570Z,15.2777777778
2018-09-08T01:05:33.979Z,15.2777777778
2018-09-08T01:05:46.380Z,15.2777777778
2018-09-08T01:05:58.798Z,15.2777777778
2018-09-08T01:06:11.191Z,15.2777777778
2018-09-08T01:06:23.566Z,15.2777777778
2018-09-08T01:06:35.951Z,15.2777777778
2018-09-08T01:06:48.518Z,15.2777777778
2018-09-08T01:07:00.895Z,15.2777777778
2018-09-08T01:07:13.376Z,15.2777777778
2018-09-08T01:07:25.761Z,15.2222222222
2018-09-08T01:07:38.262Z,15.2777777778
2018-09-08T01:07:50.670Z,15.2777777778
2018-09-08T01:08:03.094Z,15.2777777778
2018-09-08T01:08:15.670Z,15.2777777778
2018-09-08T01:08:28.080Z,15.2777777778
2018-09-08T01:08:40.461Z,15.2222222222
2018-09-08T01:08:52.870Z,15.2777777778
2018-09-08T01:09:05.318Z,15.2222222222
2018-09-08T01:09:17.704Z,15.2777777778
2018-09-08T01:09:30.117Z,15.2222222222
2018-09-08T01:09:42.507Z,15.2222222222
2018-09-08T01:09:54.909Z,15.2222222222
2018-09-08T01:10:07.342Z,15.2222222222
2018-09-08T01:10:19.763Z,15.2222222222
2018-09-08T01:10:32.169Z,15.2222222222
2018-09-08T01:10:44.578Z,15.2222222222
2018-09-08T01:10:56.969Z,15.2222222222
2018-09-08T01:11:09.362Z,15.2222222222
2018-09-08T01:11:21.774Z,15.2222222222
2018-09-08T01:11:34.184Z,15.2222222222
2018-09-08T01:11:47.013Z,15.2222222222
2018-09-08T01:11:59.410Z,15.2222222222
2018-09-08T01:12:11.793Z,15.2222222222
2018-09-08T01:12:24.186Z,15.2222222222
2018-09-08T01:12:36.577Z,15.2222222222
2018-09-08T01:12:49.112Z,15.1666666667
2018-09-08T01:13:01.500Z,15.2222222222
2018-09-08T01:13:13.875Z,15.1666666667
2018-09-08T01:13:26.668Z,15.1666666667
2018-09-08T01:13:39.074Z,15.1666666667
2018-09-08T01:13:51.462Z,15.1666666667
2018-09-08T01:14:03.858Z,15.1666666667
2018-09-08T01:14:16.254Z,15.1666666667
2018-09-08T01:14:28.655Z,15.1666666667
2018-09-08T01:14:41.040Z,15.1666666667
2018-09-08T01:14:53.469Z,15.1666666667
2018-09-08T01:15:05.844Z,15.1666666667
2018-09-08T01:15:18.241Z,15.1666666667
2018-09-08T01:15:30.639Z,15.1666666667
2018-09-08T01:15:43.072Z,15.1666666667
2018-09-08T01:15:55.479Z,15.1666666667
2018-09-08T01:16:08.157Z,15.1111111111
2018-09-08T01:16:20.633Z,15.1111111111
2018-09-08T01:16:32.995Z,15.1111111111
2018-09-08T01:16:45.378Z,15.1111111111
2018-09-08T01:16:57.762Z,15.1111111111
2018-09-08T01:17:10.158Z,15.1111111111
2018-09-08T01:17:22.560Z,15.1111111111
2018-09-08T01:17:35.030Z,15.1111111111
2018-09-08T01:17:47.448Z,15.1111111111
2018-09-08T01:17:59.833Z,15.1111111111
2018-09-08T01:18:12.209Z,15.1111111111
2018-09-08T01:18:24.581Z,15.1111111111
2018-09-08T01:18:36.970Z,15.1111111111
2018-09-08T01:18:49.342Z,15.1111111111
2018-09-08T01:19:01.781Z,15.1111111111
2018-09-08T01:19:14.167Z,15.1111111111
2018-09-08T01:19:26.566Z,15.1111111111
2018-09-08T01:19:38.946Z,15.1111111111
2018-09-08T01:19:51.372Z,15.1111111111
2018-09-08T01:20:03.774Z,15.1111111111
2018-09-08T01:20:16.168Z,15.1111111111
2018-09-08T01:20:28.554Z,15.1111111111
2018-09-08T01:20:41.314Z,15.0555555556
2018-09-08T01:20:53.701Z,15.1111111111
2018-09-08T01:21:06.094Z,15.1111111111
2018-09-08T01:21:18.465Z,15.0555555556
2018-09-08T01:21:30.879Z,15.0555555556
2018-09-08T01:21:43.258Z,15.0555555556
2018-09-08T01:21:55.655Z,15.0555555556
2018-09-08T01:22:08.055Z,15.0555555556
2018-09-08T01:22:20.458Z,15.0555555556
2018-09-08T01:22:32.839Z,15.0555555556
2018-09-08T01:22:45.256Z,15.0555555556
2018-09-08T01:22:57.631Z,15.0555555556
2018-09-08T01:23:10.118Z,15.0555555556
2018-09-08T01:23:22.501Z,15.0555555556
2018-09-08T01:23:34.984Z,15.0555555556
2018-09-08T01:23:47.422Z,15
2018-09-08T01:23:59.859Z,15.0555555556
2018-09-08T01:24:12.233Z,15.0555555556
2018-09-08T01:24:24.601Z,15.0555555556
2018-09-08T01:24:37.010Z,15
2018-09-08T01:24:49.491Z,15.0555555556
2018-09-08T01:25:01.945Z,15
2018-09-08T01:25:14.337Z,15
2018-09-08T01:25:26.812Z,15.0555555556
2018-09-08T01:25:39.219Z,15
2018-09-08T01:25:51.597Z,15
2018-09-08T01:26:04.061Z,15
2018-09-08T01:26:16.456Z,15
2018-09-08T01:26:28.846Z,15
2018-09-08T01:26:41.299Z,15
2018-09-08T01:26:53.804Z,15
2018-09-08T01:27:06.201Z,15
2018-09-08T01:27:18.594Z,15
2018-09-08T01:27:30.997Z,15
2018-09-08T01:27:43.367Z,15
2018-09-08T01:27:55.743Z,15
2018-09-08T01:28:08.120Z,15
2018-09-08T01:28:20.487Z,15.0555555556
2018-09-08T01:28:32.862Z,15
2018-09-08T01:28:45.234Z,15
2018-09-08T01:28:57.630Z,15
2018-09-08T01:29:10.032Z,15
2018-09-08T01:29:22.402Z,15
2018-09-08T01:29:34.768Z,15
2018-09-08T01:29:47.133Z,14.9444444444
2018-09-08T01:29:59.527Z,15
2018-09-08T01:30:11.961Z,15
2018-09-08T01:30:24.457Z,15
2018-09-08T01:30:36.837Z,14.9444444444
2018-09-08T01:30:49.201Z,15
2018-09-08T01:31:01.599Z,14.9444444444
2018-09-08T01:31:13.979Z,14.9444444444
2018-09-08T01:31:26.365Z,14.9444444444
2018-09-08T01:31:38.757Z,14.9444444444
2018-09-08T01:31:51.135Z,14.9444444444
2018-09-08T01:32:03.532Z,14.9444444444
2018-09-08T01:32:15.926Z,14.9444444444
2018-09-08T01:32:28.309Z,14.9444444444
2018-09-08T01:32:40.690Z,14.9444444444
2018-09-08T01:32:53.092Z,14.9444444444
2018-09-08T01:33:05.518Z,14.9444444444
2018-09-08T01:33:17.912Z,14.9444444444
2018-09-08T01:33:30.331Z,14.9444444444
2018-09-08T01:33:42.722Z,14.8888888889
2018-09-08T01:33:55.169Z,14.9444444444
2018-09-08T01:34:07.553Z,14.9444444444
2018-09-08T01:34:19.908Z,14.8888888889
2018-09-08T01:34:32.301Z,14.8888888889
2018-09-08T01:34:44.692Z,14.9444444444
2018-09-08T01:34:57.086Z,14.8888888889
2018-09-08T01:35:09.475Z,14.9444444444
2018-09-08T01:35:21.901Z,14.9444444444
2018-09-08T01:35:34.292Z,14.8888888889
2018-09-08T01:35:46.668Z,14.8888888889
2018-09-08T01:35:59.047Z,14.8888888889
2018-09-08T01:36:12.318Z,14.8888888889
2018-09-08T01:36:24.833Z,14.8888888889
2018-09-08T01:36:37.233Z,14.8888888889
2018-09-08T01:36:49.649Z,14.8888888889
2018-09-08T01:37:02.087Z,14.9444444444
2018-09-08T01:37:14.471Z,14.8888888889
2018-09-08T01:37:27.006Z,14.8888888889
2018-09-08T01:37:39.415Z,14.8888888889
2018-09-08T01:37:51.807Z,14.8888888889
2018-09-08T01:38:04.177Z,14.8888888889
2018-09-08T01:38:16.550Z,14.8888888889
2018-09-08T01:38:28.914Z,14.8888888889
2018-09-08T01:38:41.306Z,14.8888888889
2018-09-08T01:38:53.700Z,14.8888888889
2018-09-08T01:39:06.090Z,14.8888888889
2018-09-08T01:39:18.474Z,14.8888888889
2018-09-08T01:39:30.861Z,14.8888888889
2018-09-08T01:39:43.235Z,14.8888888889
2018-09-08T01:39:55.618Z,14.8333333333
2018-09-08T01:40:08.011Z,14.8888888889
2018-09-08T01:40:20.397Z,14.8888888889
2018-09-08T01:40:32.811Z,14.8888888889
2018-09-08T01:40:45.208Z,14.8888888889
2018-09-08T01:40:57.608Z,14.8888888889
2018-09-08T01:41:09.991Z,14.8888888889
2018-09-08T01:41:22.391Z,14.8888888889
2018-09-08T01:41:34.773Z,14.8888888889
2018-09-08T01:41:47.150Z,14.8333333333
2018-09-08T01:41:59.537Z,14.8333333333
2018-09-08T01:42:11.967Z,14.8333333333
2018-09-08T01:42:24.475Z,14.8333333333
2018-09-08T01:42:36.844Z,14.8888888889
2018-09-08T01:42:49.221Z,14.8333333333
2018-09-08T01:43:01.611Z,14.8888888889
2018-09-08T01:43:14.037Z,14.8333333333
2018-09-08T01:43:26.421Z,14.8333333333
2018-09-08T01:43:38.790Z,14.8333333333
2018-09-08T01:43:51.172Z,14.8333333333
2018-09-08T01:44:03.548Z,14.8333333333
2018-09-08T01:44:15.927Z,14.8333333333
2018-09-08T01:44:28.325Z,14.8333333333
2018-09-08T01:44:40.719Z,14.8333333333
2018-09-08T01:44:53.098Z,14.8333333333
2018-09-08T01:45:05.477Z,14.8333333333
2018-09-08T01:45:17.877Z,14.8333333333
2018-09-08T01:45:30.246Z,14.8333333333
2018-09-08T01:45:42.614Z,14.8333333333
2018-09-08T01:45:55.030Z,14.8333333333
2018-09-08T01:46:07.435Z,14.8333333333
2018-09-08T01:46:19.825Z,14.8333333333
2018-09-08T01:46:32.235Z,14.8333333333
2018-09-08T01:46:44.612Z,14.8333333333
2018-09-08T01:46:56.990Z,14.8333333333
2018-09-08T01:47:09.368Z,14.8333333333
2018-09-08T01:47:21.744Z,14.8333333333
2018-09-08T01:47:34.148Z,14.8333333333
2018-09-08T01:47:46.536Z,14.7777777778
2018-09-08T01:47:58.928Z,14.8333333333
2018-09-08T01:48:11.311Z,14.8333333333
2018-09-08T01:48:23.708Z,14.8333333333
2018-09-08T01:48:36.093Z,14.8333333333
2018-09-08T01:48:48.467Z,14.8333333333
2018-09-08T01:49:00.863Z,14.8333333333
2018-09-08T01:49:13.358Z,14.7777777778
2018-09-08T01:49:25.759Z,14.8333333333
2018-09-08T01:49:38.146Z,14.7777777778
2018-09-08T01:49:50.543Z,14.7777777778
2018-09-08T01:50:02.935Z,14.7777777778
2018-09-08T01:50:15.313Z,14.7777777778
2018-09-08T01:50:27.683Z,14.8333333333
2018-09-08T01:50:40.067Z,14.7777777778
2018-09-08T01:50:52.445Z,14.7777777778
2018-09-08T01:51:04.826Z,14.7777777778
2018-09-08T01:51:17.209Z,14.7777777778
2018-09-08T01:51:29.588Z,14.7777777778
2018-09-08T01:51:41.952Z,14.7777777778
2018-09-08T01:51:54.340Z,14.7777777778
2018-09-08T01:52:06.726Z,14.7777777778
2018-09-08T01:52:19.108Z,14.7777777778
2018-09-08T01:52:31.505Z,14.7777777778
2018-09-08T01:52:43.883Z,14.7777777778
2018-09-08T01:52:56.334Z,14.7777777778
2018-09-08T01:53:08.737Z,14.7777777778
2018-09-08T01:53:21.141Z,14.7777777778
2018-09-08T01:53:33.534Z,14.7777777778
2018-09-08T01:53:45.912Z,14.7222222222
2018-09-08T01:53:58.299Z,14.7777777778
2018-09-08T01:54:10.687Z,14.7777777778
2018-09-08T01:54:23.072Z,14.7777777778
2018-09-08T01:54:35.440Z,14.7777777778
2018-09-08T01:54:47.822Z,14.7777777778
2018-09-08T01:55:00.199Z,14.7777777778
2018-09-08T01:55:12.603Z,14.7777777778
2018-09-08T01:55:24.994Z,14.7777777778
2018-09-08T01:55:37.366Z,14.7777777778
2018-09-08T01:55:49.735Z,14.7222222222
2018-09-08T01:56:02.139Z,14.7777777778
2018-09-08T01:56:14.511Z,14.7777777778
2018-09-08T01:56:26.885Z,14.7777777778
2018-09-08T01:56:39.258Z,14.7777777778
2018-09-08T01:56:51.650Z,14.7777777778
2018-09-08T01:57:04.079Z,14.7777777778
2018-09-08T01:57:16.454Z,14.7777777778
2018-09-08T01:57:28.846Z,14.7777777778
2018-09-08T01:57:41.275Z,14.7777777778
2018-09-08T01:57:53.721Z,14.7777777778
2018-09-08T01:58:06.108Z,14.7777777778
2018-09-08T01:58:18.489Z,14.7777777778
2018-09-08T01:58:30.885Z,14.7777777778
2018-09-08T01:58:43.256Z,14.7777777778
2018-09-08T01:58:55.642Z,14.7777777778
2018-09-08T01:59:08.023Z,14.7777777778
2018-09-08T01:59:20.415Z,14.7777777778
2018-09-08T01:59:32.800Z,14.7777777778
2018-09-08T01:59:45.961Z,14.7777777778
2018-09-08T01:59:58.364Z,14.7777777778
2018-09-08T02:00:10.834Z,14.7777777778
2018-09-08T02:00:23.237Z,14.7777777778
2018-09-08T02:00:35.658Z,14.7777777778
2018-09-08T02:00:48.060Z,14.7777777778
2018-09-08T02:01:00.451Z,14.7777777778
2018-09-08T02:01:13.502Z,14.7777777778
2018-09-08T02:01:26.049Z,14.7777777778
2018-09-08T02:01:38.468Z,14.7777777778
2018-09-08T02:01:50.946Z,14.7777777778
2018-09-08T02:02:03.393Z,14.7777777778
2018-09-08T02:02:15.802Z,14.7777777778
2018-09-08T02:02:28.182Z,14.7777777778
2018-09-08T02:02:40.568Z,14.7777777778
2018-09-08T02:02:52.960Z,14.7777777778
2018-09-08T02:03:05.346Z,14.8333333333
2018-09-08T02:03:17.909Z,14.7777777778
2018-09-08T02:03:30.287Z,14.7777777778
2018-09-08T02:03:42.679Z,14.7777777778
2018-09-08T02:03:55.093Z,14.7777777778
2018-09-08T02:04:07.472Z,14.7777777778
2018-09-08T02:04:19.883Z,14.7777777778
2018-09-08T02:04:32.282Z,14.7777777778
2018-09-08T02:04:44.732Z,14.7777777778
2018-09-08T02:04:57.129Z,14.7777777778
2018-09-08T02:05:09.540Z,14.7777777778
2018-09-08T02:05:21.936Z,14.7777777778
2018-09-08T02:05:34.321Z,14.8333333333
2018-09-08T02:05:46.712Z,14.7777777778
2018-09-08T02:05:59.110Z,14.8333333333
2018-09-08T02:06:11.514Z,14.8333333333
2018-09-08T02:06:23.886Z,14.8333333333
2018-09-08T02:06:36.274Z,14.8333333333
2018-09-08T02:06:49.051Z,14.8333333333
2018-09-08T02:07:01.444Z,14.8333333333
2018-09-08T02:07:13.821Z,14.8333333333
2018-09-08T02:07:26.205Z,14.8333333333
2018-09-08T02:07:38.709Z,14.7777777778
2018-09-08T02:07:51.231Z,14.8333333333
2018-09-08T02:08:03.619Z,14.8333333333
2018-09-08T02:08:16.090Z,14.8333333333
2018-09-08T02:08:28.474Z,14.8333333333
2018-09-08T02:08:40.875Z,14.8333333333
2018-09-08T02:08:53.309Z,14.8333333333
2018-09-08T02:09:05.720Z,14.8333333333
2018-09-08T02:09:18.257Z,14.8333333333
2018-09-08T02:09:30.643Z,14.8333333333
2018-09-08T02:09:43.024Z,14.8333333333
2018-09-08T02:09:55.433Z,14.8333333333
2018-09-08T02:10:07.818Z,14.8333333333
2018-09-08T02:10:20.216Z,14.8888888889
2018-09-08T02:10:32.633Z,14.8333333333
2018-09-08T02:10:45.020Z,14.8888888889
2018-09-08T02:10:57.435Z,14.8888888889
2018-09-08T02:11:09.831Z,14.8888888889
2018-09-08T02:11:22.233Z,14.8888888889